Terminal Aerodrome Forecast
Issued by NWS State College, PA

Home | Current Version | Previous Version | Text Only | Print | Product List | Glossary On
Versions: 1 2 3 4 5 6 7 8 9 10 11 12 13 14 15 16 17 18 19 20 21 22 23 24 25 26
000
FTUS41 KCTP 231510 AAC
TAFIPT
TAF AMD
KIPT 231510Z 2315/2412 08010G16KT P6SM OVC012
     FM232000 12015G25KT P6SM OVC030
     FM240300 13015G30KT 3SM SHRA OVC015 WS020/16045KT
     FM240900 17008KT 6SM -SHRA OVC010=

USA.gov is the U.S. government's official web portal to all federal, state and local government web resources and services.